createdAt,value
2023-03-18T00:00:29.815Z,75.27
2023-03-18T00:01:29.278Z,75.16
2023-03-18T00:02:29.339Z,74.96
2023-03-18T00:03:29.316Z,74.96
2023-03-18T00:04:29.246Z,74.96
2023-03-18T00:05:29.254Z,75.27
2023-03-18T00:06:29.228Z,75.27
2023-03-18T00:07:29.395Z,75.16
2023-03-18T00:08:29.257Z,75.68
2023-03-18T00:09:29.378Z,75.37
2023-03-18T00:10:29.300Z,75.57
2023-03-18T00:11:29.284Z,75.57
2023-03-18T00:12:29.260Z,75.37
2023-03-18T00:13:29.208Z,75.07
2023-03-18T00:14:29.151Z,75.27
2023-03-18T00:15:29.143Z,75.48
2023-03-18T00:16:29.258Z,75.27
2023-03-18T00:17:29.118Z,75.07
2023-03-18T00:18:29.116Z,75.27
2023-03-18T00:19:29.207Z,75.27
2023-03-18T00:20:29.307Z,75.37
2023-03-18T00:21:29.066Z,75.78
2023-03-18T00:22:29.135Z,75.48
2023-03-18T00:23:29.205Z,75.88
2023-03-18T00:24:29.248Z,75.88
2023-03-18T00:25:29.085Z,75.88
2023-03-18T00:26:29.090Z,76.09
2023-03-18T00:27:29.257Z,75.88
2023-03-18T00:28:29.282Z,75.92
2023-03-18T00:29:29.732Z,75.92
2023-03-18T00:30:29.459Z,76.12
2023-03-18T00:31:29.248Z,76.02
2023-03-18T00:32:28.976Z,76.22
2023-03-18T00:33:28.939Z,76.32
2023-03-18T00:34:29.145Z,76.53
2023-03-18T00:35:29.081Z,76.53
2023-03-18T00:36:29.130Z,76.43
2023-03-18T00:37:28.926Z,76.73
2023-03-18T00:38:29.045Z,76.73
2023-03-18T00:39:28.968Z,76.84
2023-03-18T00:40:28.920Z,76.73
2023-03-18T00:41:29.280Z,76.93
2023-03-18T00:42:29.120Z,76.73
2023-03-18T00:43:28.938Z,76.93
2023-03-18T00:44:28.862Z,76.93
2023-03-18T00:45:28.836Z,76.93
2023-03-18T00:46:28.891Z,77.04
2023-03-18T00:47:28.992Z,77.14
2023-03-18T00:48:28.829Z,77.25
2023-03-18T00:49:28.995Z,77.04
2023-03-18T00:50:28.779Z,76.84
2023-03-18T00:51:28.740Z,76.93
2023-03-18T00:52:30.575Z,76.84
2023-03-18T00:53:28.712Z,76.84
2023-03-18T00:54:28.712Z,76.84
2023-03-18T00:55:28.738Z,76.73
2023-03-18T00:56:28.688Z,76.93
2023-03-18T00:57:28.663Z,77.04
2023-03-18T00:58:28.708Z,77.14
2023-03-18T00:59:28.635Z,77.45
2023-03-18T01:00:28.671Z,77.55
2023-03-18T01:01:28.629Z,77.65
2023-03-18T01:02:28.733Z,78.16
2023-03-18T01:03:28.619Z,78.47
2023-03-18T01:04:28.616Z,78.67
2023-03-18T01:05:28.602Z,78.88
2023-03-18T01:06:28.630Z,78.98
2023-03-18T01:07:28.556Z,79.08
2023-03-18T01:08:28.562Z,79.52
2023-03-18T01:09:28.566Z,79.63
2023-03-18T01:10:28.541Z,79.73
2023-03-18T01:11:28.725Z,79.63
2023-03-18T01:12:28.524Z,79.83
2023-03-18T01:13:28.502Z,79.73
2023-03-18T01:14:28.521Z,79.73
2023-03-18T01:15:28.506Z,79.83
2023-03-18T01:16:28.590Z,79.93
2023-03-18T01:17:28.449Z,79.93
2023-03-18T01:18:28.462Z,79.90
2023-03-18T01:19:28.450Z,79.90
2023-03-18T01:20:28.593Z,80.00
2023-03-18T01:21:28.501Z,80.10
2023-03-18T01:22:28.413Z,80.00
2023-03-18T01:23:28.460Z,80.10
2023-03-18T01:24:28.424Z,80.00
2023-03-18T01:25:28.423Z,80.00
2023-03-18T01:26:28.392Z,79.80
2023-03-18T01:27:28.346Z,80.20
2023-03-18T01:28:28.654Z,79.90
2023-03-18T01:29:28.346Z,80.20
2023-03-18T01:30:28.367Z,80.00
2023-03-18T01:31:28.382Z,79.90
2023-03-18T01:32:28.440Z,79.80
2023-03-18T01:33:28.444Z,80.20
2023-03-18T01:34:28.397Z,80.51
2023-03-18T01:35:28.315Z,80.51
2023-03-18T01:36:28.254Z,80.51
2023-03-18T01:37:28.372Z,80.71
2023-03-18T01:38:28.424Z,80.51
2023-03-18T01:39:28.282Z,80.20
2023-03-18T01:40:28.353Z,80.20
2023-03-18T01:41:28.199Z,80.30
2023-03-18T01:42:28.201Z,80.30
2023-03-18T01:43:28.223Z,80.41
2023-03-18T01:44:28.160Z,80.41
2023-03-18T01:45:28.250Z,80.65
2023-03-18T01:46:28.153Z,80.55
2023-03-18T01:47:28.177Z,80.75
2023-03-18T01:48:28.240Z,80.85
2023-03-18T01:49:28.234Z,80.99
2023-03-18T01:50:28.117Z,81.30
2023-03-18T01:51:28.127Z,81.51
2023-03-18T01:52:28.091Z,81.60
2023-03-18T01:53:28.078Z,82.01
2023-03-18T01:54:28.045Z,81.91
2023-03-18T01:55:28.454Z,82.22
2023-03-18T01:56:28.052Z,82.46
2023-03-18T01:57:28.232Z,82.87
2023-03-18T01:58:28.022Z,82.87
2023-03-18T01:59:27.983Z,82.77
2023-03-18T02:00:27.993Z,82.87
2023-03-18T02:01:28.084Z,83.07
2023-03-18T02:02:27.963Z,83.18
2023-03-18T02:03:27.963Z,83.18
2023-03-18T02:04:27.982Z,83.18
2023-03-18T02:05:29.702Z,83.28
2023-03-18T02:06:27.984Z,83.52
2023-03-18T02:07:28.255Z,83.42
2023-03-18T02:08:27.909Z,83.28
2023-03-18T02:09:27.893Z,83.38
2023-03-18T02:10:27.908Z,83.38
2023-03-18T02:11:28.661Z,83.28
2023-03-18T02:12:27.868Z,83.18
2023-03-18T02:13:27.846Z,83.18
2023-03-18T02:14:27.900Z,83.07
2023-03-18T02:15:27.842Z,83.28
2023-03-18T02:16:27.851Z,83.38
2023-03-18T02:17:27.832Z,83.28
2023-03-18T02:18:27.822Z,83.48
2023-03-18T02:19:27.780Z,83.62
2023-03-18T02:20:27.771Z,83.83
2023-03-18T02:21:27.973Z,83.93
2023-03-18T02:22:27.761Z,84.03
2023-03-18T02:23:27.764Z,84.24
2023-03-18T02:24:27.778Z,84.24
2023-03-18T02:25:27.745Z,84.38
2023-03-18T02:26:27.742Z,84.79
2023-03-18T02:27:27.722Z,84.89
2023-03-18T02:28:27.709Z,84.99
2023-03-18T02:29:27.704Z,85.10
2023-03-18T02:30:27.666Z,85.30
2023-03-18T02:31:27.678Z,85.34
2023-03-18T02:32:27.780Z,85.34
2023-03-18T02:33:27.630Z,85.96
2023-03-18T02:34:27.670Z,85.85
2023-03-18T02:35:27.635Z,85.96
2023-03-18T02:36:27.654Z,86.30
2023-03-18T02:37:27.577Z,86.40
2023-03-18T02:38:27.619Z,86.51
2023-03-18T02:39:27.570Z,86.71
2023-03-18T02:40:27.575Z,86.91
2023-03-18T02:41:27.534Z,86.91
2023-03-18T02:42:27.562Z,87.12
2023-03-18T02:43:27.543Z,87.53
2023-03-18T02:44:27.570Z,87.63
2023-03-18T02:45:27.514Z,87.53
2023-03-18T02:46:27.542Z,87.43
2023-03-18T02:47:27.471Z,87.22
2023-03-18T02:48:27.481Z,87.43
2023-03-18T02:49:27.462Z,87.43
2023-03-18T02:50:27.456Z,87.22
2023-03-18T02:51:27.443Z,87.32
2023-03-18T02:52:27.452Z,87.32
2023-03-18T02:53:27.426Z,87.32
2023-03-18T02:54:27.447Z,87.43
2023-03-18T02:55:27.464Z,87.43
2023-03-18T02:56:27.393Z,87.43
2023-03-18T02:57:27.376Z,87.32
2023-03-18T02:58:27.385Z,87.32
2023-03-18T02:59:27.389Z,87.32
2023-03-18T03:00:27.361Z,87.53
2023-03-18T03:01:27.319Z,87.53
2023-03-18T03:02:27.523Z,87.29
2023-03-18T03:03:27.342Z,87.29
2023-03-18T03:04:27.327Z,87.29
2023-03-18T03:05:27.295Z,87.22
2023-03-18T03:06:27.307Z,87.38
2023-03-18T03:07:27.281Z,87.38
2023-03-18T03:08:27.276Z,87.32
2023-03-18T03:09:27.278Z,87.43
2023-03-18T03:10:27.242Z,87.53
2023-03-18T03:11:27.215Z,87.53
2023-03-18T03:12:27.223Z,87.59
2023-03-18T03:13:27.186Z,87.49
2023-03-18T03:14:27.212Z,87.38
2023-03-18T03:15:27.198Z,87.18
2023-03-18T03:16:27.177Z,87.29
2023-03-18T03:17:27.444Z,87.18
2023-03-18T03:18:27.160Z,87.18
2023-03-18T03:19:27.161Z,87.08
2023-03-18T03:20:27.180Z,87.18
2023-03-18T03:21:27.114Z,87.08
2023-03-18T03:22:27.139Z,86.98
2023-03-18T03:23:27.085Z,86.88
2023-03-18T03:24:27.166Z,86.77
2023-03-18T03:25:27.076Z,86.63
2023-03-18T03:26:27.095Z,86.67
2023-03-18T03:27:27.047Z,86.63
2023-03-18T03:28:27.048Z,86.53
2023-03-18T03:29:27.063Z,86.43
2023-03-18T03:30:27.072Z,86.32
2023-03-18T03:31:27.057Z,86.22
2023-03-18T03:32:27.041Z,86.43
2023-03-18T03:33:26.991Z,86.32
2023-03-18T03:34:27.041Z,86.43
2023-03-18T03:35:26.961Z,86.43
2023-03-18T03:36:26.973Z,86.43
2023-03-18T03:37:26.965Z,86.43
2023-03-18T03:38:26.997Z,86.53
2023-03-18T03:39:26.918Z,86.53
2023-03-18T03:40:26.904Z,86.83
2023-03-18T03:41:26.895Z,87.04
2023-03-18T03:42:26.913Z,87.04
2023-03-18T03:43:26.905Z,87.24
2023-03-18T03:44:26.967Z,87.24
2023-03-18T03:45:26.877Z,87.24
2023-03-18T03:46:26.873Z,87.24
2023-03-18T03:47:26.843Z,87.35
2023-03-18T03:48:26.830Z,87.35
2023-03-18T03:49:26.798Z,87.24
2023-03-18T03:50:26.819Z,87.14
2023-03-18T03:51:26.827Z,87.24
2023-03-18T03:52:26.783Z,87.35
2023-03-18T03:53:26.792Z,87.35
2023-03-18T03:54:26.773Z,87.35
2023-03-18T03:55:26.759Z,87.35
2023-03-18T03:56:26.744Z,87.24
2023-03-18T03:57:26.740Z,87.14
2023-03-18T03:58:26.744Z,87.24
2023-03-18T03:59:26.728Z,87.61
2023-03-18T04:00:26.717Z,87.71
2023-03-18T04:01:26.668Z,87.51
2023-03-18T04:02:26.742Z,87.41
2023-03-18T04:03:26.673Z,87.30
2023-03-18T04:04:27.044Z,87.20
2023-03-18T04:05:26.641Z,87.51
2023-03-18T04:06:26.631Z,87.82
2023-03-18T04:07:26.615Z,87.82
2023-03-18T04:08:26.614Z,88.23
2023-03-18T04:09:26.612Z,88.23
2023-03-18T04:10:26.593Z,88.12
2023-03-18T04:11:26.572Z,88.23
2023-03-18T04:12:26.651Z,88.33
2023-03-18T04:13:26.571Z,88.33
2023-03-18T04:14:26.577Z,88.33
2023-03-18T04:15:26.531Z,88.43
2023-03-18T04:16:26.600Z,88.94
2023-03-18T04:17:26.502Z,88.94
2023-03-18T04:18:26.508Z,88.94
2023-03-18T04:19:26.540Z,89.15
2023-03-18T04:20:26.484Z,89.45
2023-03-18T04:21:26.481Z,89.35
2023-03-18T04:22:26.474Z,89.31
2023-03-18T04:23:26.466Z,89.31
2023-03-18T04:24:26.424Z,89.20
2023-03-18T04:25:26.451Z,89.20
2023-03-18T04:26:26.505Z,89.31
2023-03-18T04:27:26.388Z,89.51
2023-03-18T04:28:26.416Z,89.61
2023-03-18T04:29:26.376Z,89.61
2023-03-18T04:30:26.390Z,89.72
2023-03-18T04:31:26.388Z,89.61
2023-03-18T04:32:26.375Z,89.61
2023-03-18T04:33:26.429Z,89.51
2023-03-18T04:34:26.329Z,89.82
2023-03-18T04:35:26.317Z,89.92
2023-03-18T04:36:26.333Z,90.02
2023-03-18T04:37:26.279Z,90.33
2023-03-18T04:38:26.304Z,90.23
2023-03-18T04:39:26.304Z,90.23
2023-03-18T04:40:26.280Z,90.43
2023-03-18T04:41:26.281Z,90.94
2023-03-18T04:42:26.276Z,90.94
2023-03-18T04:43:26.236Z,91.25
2023-03-18T04:44:26.240Z,91.25
2023-03-18T04:45:26.197Z,91.35
2023-03-18T04:46:26.246Z,91.46
2023-03-18T04:47:26.186Z,91.56
2023-03-18T04:48:26.181Z,91.56
2023-03-18T04:49:26.160Z,91.76
2023-03-18T04:50:26.177Z,91.66
2023-03-18T04:51:26.203Z,91.70
2023-03-18T04:52:26.210Z,91.80
2023-03-18T04:53:26.112Z,91.66
2023-03-18T04:54:26.128Z,91.70
2023-03-18T04:55:26.120Z,91.80
2023-03-18T04:56:26.108Z,91.80
2023-03-18T04:57:26.076Z,91.80
2023-03-18T04:58:26.122Z,91.80
2023-03-18T04:59:26.069Z,91.80
2023-03-18T05:00:26.069Z,91.80
2023-03-18T05:01:26.033Z,91.91
2023-03-18T05:02:26.045Z,91.70
2023-03-18T05:03:26.033Z,91.60
2023-03-18T05:04:26.052Z,91.60
2023-03-18T05:05:26.020Z,91.50
2023-03-18T05:06:25.982Z,91.70
2023-03-18T05:07:25.986Z,91.60
2023-03-18T05:08:25.962Z,91.60
2023-03-18T05:09:25.972Z,91.70
2023-03-18T05:10:25.940Z,91.70
2023-03-18T05:11:25.944Z,92.01
2023-03-18T05:12:25.909Z,92.32
2023-03-18T05:13:25.907Z,92.83
2023-03-18T05:14:25.967Z,93.13
2023-03-18T05:15:25.875Z,93.24
2023-03-18T05:16:25.967Z,93.95
2023-03-18T05:17:25.846Z,94.26
2023-03-18T05:18:25.866Z,94.26
2023-03-18T05:19:25.848Z,94.51
2023-03-18T05:20:25.867Z,94.60
2023-03-18T05:21:25.837Z,94.60
2023-03-18T05:22:25.827Z,94.92
2023-03-18T05:23:25.814Z,95.12
2023-03-18T05:24:25.786Z,95.12
2023-03-18T05:25:25.710Z,95.43
2023-03-18T05:26:25.737Z,95.94
2023-03-18T05:27:25.831Z,96.25
2023-03-18T05:28:25.759Z,96.45
2023-03-18T05:29:25.680Z,96.45
2023-03-18T05:30:25.688Z,96.66
2023-03-18T05:31:25.703Z,96.96
2023-03-18T05:32:25.672Z,97.67
2023-03-18T05:33:25.623Z,97.98
2023-03-18T05:34:25.627Z,98.44
2023-03-18T05:35:25.666Z,98.85
2023-03-18T05:36:25.600Z,99.15
2023-03-18T05:37:25.651Z,99.46
2023-03-18T05:38:25.591Z,99.77
2023-03-18T05:39:25.594Z,99.99
2023-03-18T05:40:25.582Z,99.99
2023-03-18T05:41:25.555Z,99.99
2023-03-18T05:42:25.561Z,99.99
2023-03-18T05:43:25.532Z,99.99
2023-03-18T05:44:25.516Z,99.99
2023-03-18T05:45:25.485Z,99.99
2023-03-18T05:46:25.503Z,99.99
2023-03-18T05:47:25.493Z,99.99
2023-03-18T05:48:25.487Z,99.99
2023-03-18T05:49:25.457Z,99.99
2023-03-18T05:50:25.505Z,99.99
2023-03-18T05:51:25.440Z,99.99
2023-03-18T05:52:25.440Z,99.99
2023-03-18T05:53:25.420Z,99.99
2023-03-18T05:54:25.439Z,99.99
2023-03-18T05:55:25.405Z,99.99
2023-03-18T05:56:25.402Z,99.99
2023-03-18T05:57:25.366Z,99.99
2023-03-18T05:58:25.399Z,99.99
2023-03-18T05:59:25.376Z,99.99
2023-03-18T06:00:25.344Z,99.99
2023-03-18T06:01:26.070Z,99.99
2023-03-18T06:02:25.404Z,99.99
2023-03-18T06:03:25.403Z,99.99
2023-03-18T06:04:25.296Z,99.99
2023-03-18T06:05:25.307Z,99.99
2023-03-18T06:06:25.290Z,99.99
2023-03-18T06:07:25.264Z,99.99
2023-03-18T06:08:25.267Z,99.99
2023-03-18T06:09:25.234Z,99.99
2023-03-18T06:10:25.259Z,99.99
2023-03-18T06:11:25.254Z,99.99
2023-03-18T06:12:25.229Z,99.99
2023-03-18T06:13:25.210Z,99.99
2023-03-18T06:14:25.202Z,99.99
2023-03-18T06:15:25.180Z,99.99
2023-03-18T06:16:25.236Z,99.99
2023-03-18T06:17:25.182Z,99.99
2023-03-18T06:18:25.166Z,99.99
2023-03-18T06:19:25.141Z,99.99
2023-03-18T06:20:25.137Z,99.99
2023-03-18T06:21:25.117Z,99.99
2023-03-18T06:22:25.132Z,99.99
2023-03-18T06:23:25.102Z,99.99
2023-03-18T06:24:25.075Z,99.99
2023-03-18T06:25:25.092Z,99.99
2023-03-18T06:26:25.048Z,99.99
2023-03-18T06:27:25.085Z,99.99
2023-03-18T06:28:25.047Z,99.99
2023-03-18T06:29:25.036Z,99.99
2023-03-18T06:30:25.031Z,99.99
2023-03-18T06:31:25.024Z,99.99
2023-03-18T06:32:24.988Z,99.99
2023-03-18T06:33:25.001Z,99.99
2023-03-18T06:34:24.974Z,99.99
2023-03-18T06:35:24.969Z,99.99
2023-03-18T06:36:24.961Z,99.99
2023-03-18T06:37:24.979Z,99.99
2023-03-18T06:38:24.935Z,99.99
2023-03-18T06:39:25.094Z,99.99
2023-03-18T06:40:24.927Z,99.99
2023-03-18T06:41:24.913Z,99.99
2023-03-18T06:42:24.892Z,99.99
2023-03-18T06:43:24.886Z,99.99
2023-03-18T06:44:24.862Z,99.99
2023-03-18T06:45:24.860Z,99.99
2023-03-18T06:46:24.911Z,99.99
2023-03-18T06:47:24.854Z,99.99
2023-03-18T06:48:24.844Z,99.99
2023-03-18T06:49:24.824Z,99.99
2023-03-18T06:50:24.849Z,99.99
2023-03-18T06:51:24.788Z,99.99
2023-03-18T06:52:24.778Z,99.99
2023-03-18T06:53:24.782Z,99.99
2023-03-18T06:54:24.775Z,99.99
2023-03-18T06:55:24.807Z,99.99
2023-03-18T06:56:24.780Z,99.99
2023-03-18T06:57:24.744Z,99.99
2023-03-18T06:58:24.920Z,99.99
2023-03-18T06:59:24.719Z,99.99
2023-03-18T07:00:24.798Z,99.99
2023-03-18T07:01:24.710Z,99.99
2023-03-18T07:02:24.699Z,99.99
2023-03-18T07:03:24.849Z,99.99
2023-03-18T07:04:24.655Z,99.99
2023-03-18T07:05:24.689Z,99.99
2023-03-18T07:06:24.674Z,99.99
2023-03-18T07:07:24.688Z,99.99
2023-03-18T07:08:24.698Z,99.99
2023-03-18T07:09:24.620Z,99.99
2023-03-18T07:10:24.654Z,99.99
2023-03-18T07:11:24.595Z,99.99
2023-03-18T07:12:24.554Z,99.99
2023-03-18T07:13:24.581Z,99.99
2023-03-18T07:14:24.538Z,99.99
2023-03-18T07:15:24.550Z,99.99
2023-03-18T07:16:24.612Z,99.99
2023-03-18T07:17:24.532Z,99.99
2023-03-18T07:18:24.547Z,99.99
2023-03-18T07:19:24.535Z,99.99
2023-03-18T07:20:24.481Z,99.99
2023-03-18T07:21:24.497Z,99.99
2023-03-18T07:22:24.459Z,99.99
2023-03-18T07:23:24.466Z,99.99
2023-03-18T07:24:24.476Z,99.99
2023-03-18T07:25:24.429Z,99.99
2023-03-18T07:26:24.468Z,99.99
2023-03-18T07:27:24.497Z,99.99
2023-03-18T07:28:24.413Z,99.99
2023-03-18T07:29:24.383Z,99.99
2023-03-18T07:30:24.391Z,99.99
2023-03-18T07:31:24.387Z,99.99
2023-03-18T07:32:24.349Z,99.99
2023-03-18T07:33:24.339Z,99.99
2023-03-18T07:34:24.358Z,99.99
2023-03-18T07:35:24.330Z,99.99
2023-03-18T07:36:24.300Z,99.99
2023-03-18T07:37:24.306Z,99.99
2023-03-18T07:38:24.301Z,99.99
2023-03-18T07:39:24.295Z,99.99
2023-03-18T07:40:24.257Z,99.99
2023-03-18T07:41:24.271Z,99.99
2023-03-18T07:42:24.252Z,99.99
2023-03-18T07:43:24.257Z,99.99
2023-03-18T07:44:24.292Z,99.99
2023-03-18T07:45:24.225Z,99.99
2023-03-18T07:46:24.273Z,99.99
2023-03-18T07:47:24.215Z,99.99
2023-03-18T07:48:24.177Z,99.99
2023-03-18T07:49:24.180Z,99.99
2023-03-18T07:50:24.174Z,99.99
2023-03-18T07:51:24.146Z,99.99
2023-03-18T07:52:24.164Z,99.99
2023-03-18T07:53:24.138Z,99.99
2023-03-18T07:54:24.230Z,99.99
2023-03-18T07:55:24.128Z,99.99
2023-03-18T07:56:24.213Z,99.99
2023-03-18T07:57:24.282Z,99.99
2023-03-18T07:58:24.081Z,99.99
2023-03-18T07:59:24.082Z,99.99
2023-03-18T08:00:24.093Z,99.99
2023-03-18T08:01:24.074Z,99.99
2023-03-18T08:02:24.034Z,99.99
2023-03-18T08:03:24.033Z,99.95
2023-03-18T08:04:24.078Z,99.95
2023-03-18T08:05:24.004Z,99.99
2023-03-18T08:06:24.010Z,99.44
2023-03-18T08:07:23.993Z,99.34
2023-03-18T08:08:24.012Z,99.24
2023-03-18T08:09:23.950Z,98.52
2023-03-18T08:10:23.944Z,98.02
2023-03-18T08:11:24.139Z,98.38
2023-03-18T08:12:23.911Z,98.38
2023-03-18T08:13:24.085Z,98.48
2023-03-18T08:14:23.988Z,97.16
2023-03-18T08:15:23.899Z,96.84
2023-03-18T08:16:23.917Z,96.54
2023-03-18T08:17:23.914Z,97.16
2023-03-18T08:18:23.894Z,96.03
2023-03-18T08:19:23.862Z,96.44
2023-03-18T08:20:23.848Z,95.83
2023-03-18T08:21:23.920Z,96.23
2023-03-18T08:22:23.819Z,96.80
2023-03-18T08:23:23.848Z,97.27
2023-03-18T08:24:23.824Z,96.35
2023-03-18T08:25:23.764Z,96.15
2023-03-18T08:26:23.775Z,94.42
2023-03-18T08:27:23.774Z,94.31
2023-03-18T08:28:23.794Z,94.72
2023-03-18T08:29:23.823Z,93.90
2023-03-18T08:30:23.764Z,94.82
2023-03-18T08:31:23.868Z,94.82
2023-03-18T08:32:23.698Z,95.23
2023-03-18T08:33:23.728Z,95.74
2023-03-18T08:34:23.691Z,95.13
2023-03-18T08:35:23.677Z,94.72
2023-03-18T08:36:23.662Z,95.33
2023-03-18T08:37:23.663Z,95.13
2023-03-18T08:38:23.659Z,94.26
2023-03-18T08:39:23.660Z,94.26
2023-03-18T08:40:23.633Z,94.26
2023-03-18T08:41:23.701Z,94.71
2023-03-18T08:42:23.621Z,94.30
2023-03-18T08:43:23.662Z,94.56
2023-03-18T08:44:23.590Z,94.76
2023-03-18T08:45:23.899Z,95.48
2023-03-18T08:46:23.631Z,94.97
2023-03-18T08:47:23.608Z,94.56
2023-03-18T08:48:23.566Z,94.46
2023-03-18T08:49:23.563Z,94.01
2023-03-18T08:50:23.546Z,94.47
2023-03-18T08:51:23.551Z,93.92
2023-03-18T08:52:23.611Z,93.16
2023-03-18T08:53:23.518Z,90.22
2023-03-18T08:54:23.504Z,90.07
2023-03-18T08:55:23.610Z,88.85
2023-03-18T08:56:23.439Z,89.11
2023-03-18T08:57:23.496Z,89.62
2023-03-18T08:58:23.511Z,87.69
2023-03-18T08:59:23.472Z,87.89
2023-03-18T09:00:23.617Z,87.99
2023-03-18T09:01:23.498Z,87.04
2023-03-18T09:02:23.557Z,85.21
2023-03-18T09:03:23.411Z,85.46
2023-03-18T09:04:23.393Z,86.71
2023-03-18T09:05:23.513Z,86.92
2023-03-18T09:06:23.460Z,84.84
2023-03-18T09:07:23.361Z,85.01
2023-03-18T09:08:23.332Z,84.36
2023-03-18T09:09:31.070Z,85.11
2023-03-18T09:10:23.339Z,84.36
2023-03-18T09:11:23.403Z,85.78
2023-03-18T09:12:23.318Z,85.17
2023-03-18T09:13:23.285Z,83.85
2023-03-18T09:14:23.245Z,84.36
2023-03-18T09:15:23.344Z,84.46
2023-03-18T09:16:23.283Z,85.47
2023-03-18T09:17:31.958Z,85.53
2023-03-18T09:18:23.229Z,85.03
2023-03-18T09:19:23.211Z,83.31
2023-03-18T09:20:23.204Z,82.50
2023-03-18T09:21:23.282Z,82.64
2023-03-18T09:22:23.246Z,83.91
2023-03-18T09:23:23.190Z,83.04
2023-03-18T09:24:23.184Z,82.73
2023-03-18T09:25:23.208Z,84.09
2023-03-18T09:26:23.216Z,84.20
2023-03-18T09:27:23.146Z,83.79
2023-03-18T09:28:23.139Z,84.40
2023-03-18T09:29:23.099Z,85.11
2023-03-18T09:30:23.138Z,83.45
2023-03-18T09:31:23.220Z,82.94
2023-03-18T09:32:23.168Z,83.31
2023-03-18T09:33:23.058Z,81.58
2023-03-18T09:34:23.276Z,81.48
2023-03-18T09:35:23.070Z,80.93
2023-03-18T09:36:23.027Z,81.44
2023-03-18T09:37:23.047Z,80.90
2023-03-18T09:38:23.031Z,81.67
2023-03-18T09:39:23.004Z,79.74
2023-03-18T09:40:22.962Z,79.47
2023-03-18T09:41:22.983Z,81.50
2023-03-18T09:42:23.000Z,80.19
2023-03-18T09:43:22.942Z,81.10
2023-03-18T09:44:22.975Z,80.99
2023-03-18T09:45:22.947Z,80.99
2023-03-18T09:46:23.097Z,80.29
2023-03-18T09:47:22.996Z,79.88
2023-03-18T09:48:22.953Z,79.61
2023-03-18T09:49:22.890Z,79.72
2023-03-18T09:50:22.893Z,80.12
2023-03-18T09:51:22.859Z,78.45
2023-03-18T09:52:22.870Z,76.66
2023-03-18T09:53:22.855Z,74.77
2023-03-18T09:54:22.868Z,72.81
2023-03-18T09:55:22.861Z,73.05
2023-03-18T09:56:22.826Z,72.81
2023-03-18T09:57:22.815Z,74.33
2023-03-18T09:58:22.791Z,72.92
2023-03-18T09:59:22.795Z,73.52
2023-03-18T10:00:22.764Z,73.56
2023-03-18T10:01:22.794Z,75.21
2023-03-18T10:02:22.759Z,76.16
2023-03-18T10:03:22.803Z,76.50
2023-03-18T10:04:22.747Z,77.55
2023-03-18T10:05:22.745Z,77.25
2023-03-18T10:06:22.685Z,77.45
2023-03-18T10:07:22.688Z,78.19
2023-03-18T10:08:22.722Z,77.89
2023-03-18T10:09:22.742Z,78.70
2023-03-18T10:10:23.042Z,78.74
2023-03-18T10:11:22.651Z,78.53
2023-03-18T10:12:22.639Z,79.35
2023-03-18T10:13:22.661Z,78.80
2023-03-18T10:14:22.638Z,75.21
2023-03-18T10:15:22.621Z,72.04
2023-03-18T10:16:22.646Z,67.80
2023-03-18T10:17:22.610Z,67.23
2023-03-18T10:18:22.613Z,68.81
2023-03-18T10:19:22.577Z,68.17
2023-03-18T10:20:22.529Z,65.82
2023-03-18T10:21:22.542Z,67.17
2023-03-18T10:22:22.519Z,63.12
2023-03-18T10:23:22.531Z,65.09
2023-03-18T10:24:22.536Z,67.27
2023-03-18T10:25:22.510Z,66.66
2023-03-18T10:26:22.479Z,64.92
2023-03-18T10:27:22.507Z,64.58
2023-03-18T10:28:22.514Z,65.19
2023-03-18T10:29:22.463Z,61.86
2023-03-18T10:30:22.440Z,64.23
2023-03-18T10:31:22.505Z,63.62
2023-03-18T10:32:22.542Z,63.14
2023-03-18T10:33:22.415Z,63.90
2023-03-18T10:34:22.432Z,64.98
2023-03-18T10:35:22.369Z,67.33
2023-03-18T10:36:22.421Z,68.80
2023-03-18T10:37:22.363Z,69.34
2023-03-18T10:38:22.371Z,69.95
2023-03-18T10:39:22.338Z,71.70
2023-03-18T10:40:22.547Z,71.94
2023-03-18T10:41:24.226Z,73.19
2023-03-18T10:42:22.348Z,74.20
2023-03-18T10:43:22.304Z,72.99
2023-03-18T10:44:22.321Z,73.32
2023-03-18T10:45:22.306Z,73.46
2023-03-18T10:46:22.396Z,74.71
2023-03-18T10:47:22.374Z,75.22
2023-03-18T10:48:22.309Z,75.12
2023-03-18T10:49:22.233Z,75.62
2023-03-18T10:50:22.315Z,75.86
2023-03-18T10:51:22.210Z,76.47
2023-03-18T10:52:22.204Z,75.42
2023-03-18T10:53:22.389Z,75.73
2023-03-18T10:54:22.204Z,76.33
2023-03-18T10:55:22.165Z,75.22
2023-03-18T10:56:22.164Z,75.93
2023-03-18T10:57:22.176Z,76.33
2023-03-18T10:58:22.158Z,76.03
2023-03-18T10:59:22.145Z,75.52
2023-03-18T11:00:22.155Z,75.22
2023-03-18T11:01:23.096Z,75.01
2023-03-18T11:02:22.168Z,74.71
2023-03-18T11:03:22.106Z,74.77
2023-03-18T11:04:22.237Z,74.77
2023-03-18T11:05:22.154Z,73.83
2023-03-18T11:06:22.098Z,72.52
2023-03-18T11:07:22.066Z,72.99
2023-03-18T11:08:22.045Z,72.11
2023-03-18T11:09:22.046Z,69.08
2023-03-18T11:10:22.022Z,68.74
2023-03-18T11:11:22.020Z,67.13
2023-03-18T11:12:22.024Z,63.08
2023-03-18T11:13:22.085Z,59.49
2023-03-18T11:14:21.955Z,54.57
2023-03-18T11:15:21.996Z,53.77
2023-03-18T11:16:22.047Z,53.07
2023-03-18T11:17:21.941Z,51.84
2023-03-18T11:18:21.927Z,52.59
2023-03-18T11:19:22.218Z,51.84
2023-03-18T11:20:22.056Z,50.30
2023-03-18T11:21:22.132Z,48.88
2023-03-18T11:22:21.882Z,47.18
2023-03-18T11:23:21.858Z,48.05
2023-03-18T11:24:21.859Z,48.46
2023-03-18T11:25:21.851Z,47.58
2023-03-18T11:26:21.931Z,47.60
2023-03-18T11:27:21.828Z,48.90
2023-03-18T11:28:21.830Z,47.98
2023-03-18T11:29:21.802Z,46.72
2023-03-18T11:30:33.730Z,45.74
2023-03-18T11:31:21.859Z,46.12
2023-03-18T11:32:21.828Z,48.54
2023-03-18T11:33:21.976Z,44.38
2023-03-18T11:34:21.801Z,44.18
2023-03-18T11:35:21.800Z,46.05
2023-03-18T11:36:21.814Z,46.31
2023-03-18T11:37:23.334Z,48.01
2023-03-18T11:38:21.715Z,45.28
2023-03-18T11:39:21.731Z,45.36
2023-03-18T11:40:21.721Z,44.88
2023-03-18T11:41:21.750Z,44.38
2023-03-18T11:42:21.704Z,45.53
2023-03-18T11:43:21.707Z,43.62
2023-03-18T11:44:21.699Z,43.82
2023-03-18T11:45:21.726Z,43.82
2023-03-18T11:46:21.678Z,44.42
2023-03-18T11:47:21.616Z,45.82
2023-03-18T11:48:21.614Z,47.53
2023-03-18T11:49:21.598Z,50.22
2023-03-18T11:50:21.616Z,51.84
2023-03-18T11:51:21.608Z,54.75
2023-03-18T11:52:21.579Z,56.29
2023-03-18T11:53:22.018Z,57.17
2023-03-18T11:54:21.598Z,57.56
2023-03-18T11:55:21.527Z,52.39
2023-03-18T11:56:21.531Z,52.04
2023-03-18T11:57:21.532Z,51.32
2023-03-18T11:58:21.512Z,51.57
2023-03-18T11:59:21.503Z,48.97
2023-03-18T12:00:21.492Z,50.59
2023-03-18T12:01:21.471Z,50.94
2023-03-18T12:02:21.509Z,51.19
2023-03-18T12:03:21.589Z,51.01
2023-03-18T12:04:21.475Z,52.49
2023-03-18T12:05:21.530Z,53.70
2023-03-18T12:06:21.422Z,52.64
2023-03-18T12:07:21.423Z,51.99
2023-03-18T12:08:21.424Z,51.22
2023-03-18T12:09:21.445Z,49.29
2023-03-18T12:10:21.590Z,49.91
2023-03-18T12:11:21.408Z,50.99
2023-03-18T12:12:21.372Z,53.00
2023-03-18T12:13:21.382Z,49.79
2023-03-18T12:14:21.390Z,51.12
2023-03-18T12:15:21.357Z,51.67
2023-03-18T12:16:21.355Z,52.24
2023-03-18T12:17:21.303Z,53.17
2023-03-18T12:18:21.341Z,53.62
2023-03-18T12:19:21.286Z,54.22
2023-03-18T12:20:21.308Z,53.70
2023-03-18T12:21:21.301Z,53.52
2023-03-18T12:22:21.266Z,52.14
2023-03-18T12:23:21.262Z,50.72
2023-03-18T12:24:21.251Z,50.39
2023-03-18T12:25:21.268Z,52.44
2023-03-18T12:26:21.239Z,50.34
2023-03-18T12:27:21.228Z,50.76
2023-03-18T12:28:21.609Z,51.79
2023-03-18T12:29:21.189Z,51.20
2023-03-18T12:30:21.276Z,46.46
2023-03-18T12:31:21.221Z,45.08
2023-03-18T12:32:21.460Z,41.83
2023-03-18T12:33:21.196Z,42.47
2023-03-18T12:34:21.148Z,42.05
2023-03-18T12:35:21.404Z,40.17
2023-03-18T12:36:21.212Z,39.65
2023-03-18T12:37:21.109Z,40.33
2023-03-18T12:38:21.086Z,40.82
2023-03-18T12:39:21.082Z,39.00
2023-03-18T12:40:21.108Z,40.98
2023-03-18T12:41:21.077Z,39.12
2023-03-18T12:42:21.072Z,38.11
2023-03-18T12:43:21.359Z,38.07
2023-03-18T12:44:21.029Z,39.07
2023-03-18T12:45:21.027Z,42.45
2023-03-18T12:46:21.079Z,43.63
2023-03-18T12:47:21.097Z,45.21
2023-03-18T12:48:36.821Z,47.84
2023-03-18T12:49:21.292Z,51.64
2023-03-18T12:50:21.007Z,52.59
2023-03-18T12:51:21.001Z,54.72
2023-03-18T12:52:21.117Z,53.02